Time;durP1;ratioP1;P1;durP2;ratioP2;P2;SDS_P1;SDS_P2;PMS_P1;PMS_P2;Temp;Humidity;BMP_temperature;BMP_pressure;BME280_temperature;BME280_humidity;BME280_pressure;Samples;Min_cycle;Max_cycle;Signal;HPM_P1;HPM_P2
2023/08/27 00:01:11;;;;;;;0.20;0.20;;;;;;;19.32;100.00;99548.84;5071163;28;20025;-64
2023/08/27 00:03:37;;;;;;;0.20;0.20;;;;;;;19.31;100.00;99549.84;5088809;28;20099;-63
2023/08/27 00:06:02;;;;;;;0.17;0.17;;;;;;;19.28;100.00;99549.19;5072950;28;20043;-63
2023/08/27 00:08:28;;;;;;;0.10;0.10;;;;;;;19.28;100.00;99573.44;5087867;28;20445;-63
2023/08/27 00:11:00;;;;;;;0.10;0.10;;;;;;;19.30;100.00;99596.69;5091152;28;20028;-63
2023/08/27 00:13:26;;;;;;;0.20;0.20;;;;;;;19.27;100.00;99596.00;5073229;28;20105;-63
2023/08/27 00:15:51;;;;;;;0.22;0.22;;;;;;;19.34;100.00;99602.72;5089627;28;20028;-63
2023/08/27 00:18:16;;;;;;;0.10;0.10;;;;;;;19.37;100.00;99597.09;5091426;28;20028;-63
2023/08/27 00:20:45;;;;;;;0.20;0.20;;;;;;;19.38;100.00;99593.41;5079794;28;20032;-63
2023/08/27 00:23:11;;;;;;;0.20;0.20;;;;;;;19.34;100.00;99592.75;5082195;28;20032;-63
2023/08/27 00:25:37;;;;;;;0.20;0.20;;;;;;;19.31;100.00;99600.22;5088611;28;20012;-63
2023/08/27 00:28:03;;;;;;;0.20;0.20;;;;;;;19.31;100.00;99584.91;5086318;28;20020;-64
2023/08/27 00:30:28;;;;;;;0.20;0.20;;;;;;;19.36;100.00;99596.22;5090899;28;20035;-63
2023/08/27 00:32:53;;;;;;;0.20;0.20;;;;;;;19.41;100.00;99594.03;5078439;28;20035;-64
2023/08/27 00:35:19;;;;;;;0.20;0.20;;;;;;;19.41;100.00;99590.47;5078172;28;20028;-63
2023/08/27 00:37:44;;;;;;;0.20;0.20;;;;;;;19.41;100.00;99598.56;5086804;28;20072;-63
2023/08/27 00:40:10;;;;;;;0.20;0.20;;;;;;;19.44;100.00;99576.75;5084008;28;20392;-63
2023/08/27 00:42:36;;;;;;;0.17;0.17;;;;;;;19.48;100.00;99562.06;5087203;28;20024;-63
2023/08/27 00:45:03;;;;;;;0.10;0.10;;;;;;;19.42;100.00;99557.13;5088916;28;20032;-63
2023/08/27 00:47:30;;;;;;;0.10;0.10;;;;;;;19.48;100.00;99589.03;5089005;28;20030;-63
2023/08/27 00:49:55;;;;;;;0.20;0.20;;;;;;;19.43;100.00;99602.00;5079598;28;20484;-64
2023/08/27 00:52:21;;;;;;;0.20;0.20;;;;;;;19.46;100.00;99601.78;5070035;28;20023;-63
2023/08/27 00:54:47;;;;;;;0.20;0.20;;;;;;;19.50;100.00;99587.94;5072400;28;20059;-63
2023/08/27 00:57:15;;;;;;;0.20;0.20;;;;;;;19.51;100.00;99578.88;5080245;28;20078;-64
2023/08/27 00:59:40;;;;;;;0.13;0.13;;;;;;;19.50;100.00;99592.47;5069537;28;20060;-64
2023/08/27 01:02:06;;;;;;;0.20;0.20;;;;;;;19.45;100.00;99578.47;5071828;28;20059;-64
2023/08/27 01:04:31;;;;;;;0.13;0.13;;;;;;;19.46;100.00;99580.19;5078962;28;20379;-64
2023/08/27 01:07:24;;;;;;;0.10;0.10;;;;;;;19.44;100.00;99556.03;5086427;28;20028;-64
2023/08/27 01:10:00;;;;;;;0.20;0.20;;;;;;;19.47;100.00;99554.94;5038561;28;20045;-65
2023/08/27 01:12:42;;;;;;;0.10;0.10;;;;;;;19.48;100.00;99545.88;5069591;28;20036;-64
2023/08/27 01:15:10;;;;;;;0.20;0.20;;;;;;;19.44;100.00;99533.56;5069976;28;20089;-64
2023/08/27 01:17:36;;;;;;;0.20;0.20;;;;;;;19.45;100.00;99535.31;5085003;28;20046;-64
2023/08/27 01:20:05;;;;;;;0.20;0.20;;;;;;;19.47;100.00;99538.75;5089260;28;20050;-65
2023/08/27 01:22:30;;;;;;;0.13;0.13;;;;;;;19.46;100.00;99554.09;5076609;28;20047;-64
2023/08/27 01:24:56;;;;;;;0.20;0.20;;;;;;;19.47;100.00;99571.97;5088838;28;20137;-64
2023/08/27 01:27:29;;;;;;;0.13;0.13;;;;;;;19.45;100.00;99568.56;5087801;28;20020;-63
2023/08/27 01:30:19;;;;;;;0.20;0.20;;;;;;;19.50;100.00;99576.28;5088893;28;20047;-64
2023/08/27 01:32:51;;;;;;;0.10;0.10;;;;;;;19.45;100.00;99548.81;5070730;28;20036;-64
2023/08/27 01:35:17;;;;;;;0.20;0.20;;;;;;;19.49;100.00;99536.78;5069786;28;20016;-64
2023/08/27 01:37:43;;;;;;;0.20;0.20;;;;;;;19.43;100.00;99521.94;5069458;28;20796;-64
2023/08/27 01:40:09;;;;;;;0.20;0.20;;;;;;;19.46;100.00;99499.25;5070193;28;20122;-63
2023/08/27 01:42:37;;;;;;;0.20;0.20;;;;;;;19.41;100.00;99483.44;5071711;28;20111;-64
2023/08/27 01:45:06;;;;;;;0.20;0.20;;;;;;;19.35;100.00;99474.97;5069481;28;20077;-64
2023/08/27 01:47:31;;;;;;;0.20;0.20;;;;;;;19.35;100.00;99481.22;5069365;28;20024;-64
2023/08/27 01:49:57;;;;;;;0.20;0.20;;;;;;;19.34;100.00;99459.75;5073903;28;20028;-64
2023/08/27 01:52:22;;;;;;;0.20;0.20;;;;;;;19.34;100.00;99463.31;5078196;28;20444;-63
2023/08/27 01:54:48;;;;;;;0.20;0.20;;;;;;;19.34;100.00;99486.75;5074883;28;20027;-64
2023/08/27 01:57:13;;;;;;;0.20;0.20;;;;;;;19.29;100.00;99497.00;5089417;28;20035;-63
2023/08/27 01:59:39;;;;;;;0.20;0.20;;;;;;;19.30;100.00;99499.59;5079149;28;20788;-64
2023/08/27 02:02:04;;;;;;;0.20;0.20;;;;;;;19.21;100.00;99484.06;5069231;28;20484;-64
2023/08/27 02:04:30;;;;;;;0.20;0.20;;;;;;;19.29;100.00;99491.63;5069192;28;20020;-64
2023/08/27 02:06:55;;;;;;;0.20;0.20;;;;;;;19.30;100.00;99494.19;5087822;28;20077;-63
2023/08/27 02:09:20;;;;;;;0.20;0.20;;;;;;;19.33;100.00;99487.69;5089117;28;20507;-63
2023/08/27 02:11:46;;;;;;;0.20;0.20;;;;;;;19.37;100.00;99508.06;5077007;28;20024;-64
2023/08/27 02:14:11;;;;;;;0.13;0.13;;;;;;;19.33;100.00;99526.31;5068377;28;20076;-63
2023/08/27 02:16:37;;;;;;;0.20;0.20;;;;;;;19.31;100.00;99500.44;5067824;28;20067;-64
2023/08/27 02:19:03;;;;;;;0.20;0.20;;;;;;;19.34;100.00;99484.03;5067663;28;20376;-64
2023/08/27 02:21:28;;;;;;;0.20;0.20;;;;;;;19.33;100.00;99507.44;5081665;28;20739;-64
2023/08/27 02:23:53;;;;;;;0.20;0.20;;;;;;;19.35;100.00;99480.34;5087809;28;20030;-64
2023/08/27 02:26:19;;;;;;;0.20;0.20;;;;;;;19.31;100.00;99449.19;5084888;28;20016;-64
2023/08/27 02:28:46;;;;;;;0.20;0.20;;;;;;;19.30;100.00;99488.81;5070894;28;20025;-64
2023/08/27 02:31:12;;;;;;;0.20;0.20;;;;;;;19.26;100.00;99508.84;5068662;28;20029;-63
2023/08/27 02:33:38;;;;;;;0.20;0.20;;;;;;;19.30;100.00;99514.91;5071219;28;20104;-64
2023/08/27 02:36:04;;;;;;;0.20;0.20;;;;;;;19.31;100.00;99511.22;5081982;28;20110;-63
2023/08/27 02:38:29;;;;;;;0.20;0.20;;;;;;;19.25;100.00;99517.06;5086816;28;20024;-64
2023/08/27 02:40:55;;;;;;;0.20;0.20;;;;;;;19.23;100.00;99513.59;5081212;28;20016;-64
2023/08/27 02:43:20;;;;;;;0.20;0.20;;;;;;;19.26;100.00;99476.47;5088514;28;20110;-64
2023/08/27 02:45:47;;;;;;;0.20;0.20;;;;;;;19.32;100.00;99484.13;5080994;28;20032;-64
2023/08/27 02:48:12;;;;;;;0.20;0.20;;;;;;;19.29;100.00;99491.63;5088708;28;20492;-63
2023/08/27 02:50:38;;;;;;;0.20;0.20;;;;;;;19.27;100.00;99493.53;5070221;28;20058;-65
2023/08/27 02:53:03;;;;;;;0.20;0.20;;;;;;;19.23;100.00;99501.00;5074750;28;20034;-64
2023/08/27 02:55:31;;;;;;;0.20;0.20;;;;;;;19.20;100.00;99503.94;5081425;28;20104;-64
2023/08/27 02:57:58;;;;;;;0.20;0.20;;;;;;;19.19;100.00;99491.41;5084310;28;20033;-64
2023/08/27 03:00:24;;;;;;;0.20;0.20;;;;;;;19.17;100.00;99489.81;5068657;28;20044;-64
2023/08/27 03:02:49;;;;;;;0.20;0.20;;;;;;;19.21;100.00;99483.19;5070648;28;20028;-64
2023/08/27 03:05:15;;;;;;;0.20;0.20;;;;;;;19.22;100.00;99484.94;5075514;28;20031;-63
2023/08/27 03:07:40;;;;;;;0.20;0.20;;;;;;;19.20;100.00;99478.78;5077236;28;20439;-64
2023/08/27 03:10:06;;;;;;;0.20;0.20;;;;;;;19.19;100.00;99493.25;5080139;28;20024;-64
2023/08/27 03:12:32;;;;;;;0.20;0.20;;;;;;;19.16;100.00;99490.81;5087279;28;20032;-64
2023/08/27 03:14:57;;;;;;;0.20;0.20;;;;;;;19.11;100.00;99476.81;5068984;28;20101;-64
2023/08/27 03:17:23;;;;;;;0.20;0.20;;;;;;;19.14;100.00;99503.53;5085563;28;20028;-64
2023/08/27 03:19:49;;;;;;;0.20;0.20;;;;;;;19.10;100.00;99499.34;5071373;28;20051;-64
2023/08/27 03:22:14;;;;;;;0.20;0.20;;;;;;;19.10;100.00;99481.34;5070241;28;20021;-63
2023/08/27 03:24:40;;;;;;;0.20;0.20;;;;;;;19.13;100.00;99458.66;5087052;28;20024;-64
2023/08/27 03:27:06;;;;;;;0.20;0.20;;;;;;;19.11;100.00;99463.34;5088317;28;20099;-64
2023/08/27 03:29:31;;;;;;;0.20;0.20;;;;;;;19.10;100.00;99475.94;5084466;28;20027;-63
2023/08/27 03:31:57;;;;;;;0.20;0.20;;;;;;;19.12;100.00;99497.38;5088298;28;20635;-64
2023/08/27 03:34:22;;;;;;;0.20;0.20;;;;;;;19.11;100.00;99498.38;5080163;28;20043;-64
2023/08/27 03:36:47;;;;;;;0.20;0.20;;;;;;;19.10;100.00;99502.03;5088189;28;20028;-64
2023/08/27 03:39:13;;;;;;;0.20;0.20;;;;;;;19.12;100.00;99498.25;5087617;28;20023;-64
2023/08/27 03:41:39;;;;;;;0.20;0.20;;;;;;;19.15;100.00;99495.31;5087021;28;20107;-65
2023/08/27 03:44:04;;;;;;;0.20;0.20;;;;;;;19.20;100.00;99490.44;5073614;28;20105;-64
2023/08/27 03:46:29;;;;;;;0.20;0.20;;;;;;;19.23;100.00;99479.41;5066791;28;20082;-63
2023/08/27 03:48:59;;;;;;;0.20;0.20;;;;;;;19.23;100.00;99487.50;5069123;28;20111;-64
2023/08/27 03:51:25;;;;;;;0.20;0.20;;;;;;;19.26;100.00;99475.63;5065647;28;20275;-64
2023/08/27 03:53:50;;;;;;;0.20;0.20;;;;;;;19.25;100.00;99485.56;5065554;28;20796;-64
2023/08/27 03:56:15;;;;;;;0.15;0.15;;;;;;;19.27;100.00;99466.56;5082364;28;20107;-64
2023/08/27 03:58:41;;;;;;;0.20;0.20;;;;;;;19.23;100.00;99465.06;5091522;28;20765;-63
2023/08/27 04:01:06;;;;;;;0.20;0.20;;;;;;;19.21;100.00;99465.19;5091177;28;20118;-64
2023/08/27 04:03:32;;;;;;;0.20;0.20;;;;;;;19.22;100.00;99479.53;5085336;28;20036;-64
2023/08/27 04:05:57;;;;;;;0.20;0.20;;;;;;;19.21;100.00;99473.28;5086181;28;20711;-64
2023/08/27 04:08:23;;;;;;;0.20;0.20;;;;;;;19.20;100.00;99463.47;5086023;28;20050;-64
2023/08/27 04:10:52;;;;;;;0.30;0.30;;;;;;;19.15;100.00;99452.19;5088283;28;20066;-64
2023/08/27 04:13:18;;;;;;;0.20;0.20;;;;;;;19.11;100.00;99463.34;5086052;28;20036;-64
2023/08/27 04:15:47;;;;;;;0.20;0.20;;;;;;;19.06;100.00;99462.81;5069437;28;20024;-64
2023/08/27 04:18:13;;;;;;;0.20;0.20;;;;;;;19.05;100.00;99461.06;5070138;28;20516;-63
2023/08/27 04:20:38;;;;;;;0.20;0.20;;;;;;;19.00;100.00;99457.88;5072534;28;20107;-64
2023/08/27 04:23:04;;;;;;;0.20;0.20;;;;;;;19.01;100.00;99459.59;5071014;28;20169;-64
2023/08/27 04:25:29;;;;;;;0.20;0.20;;;;;;;19.00;100.00;99455.19;5073031;28;20035;-64
2023/08/27 04:27:56;;;;;;;0.20;0.20;;;;;;;19.03;100.00;99452.25;5071056;28;20116;-64
2023/08/27 04:30:21;;;;;;;0.30;0.30;;;;;;;19.00;100.00;99442.56;5071157;28;20028;-64
2023/08/27 04:32:47;;;;;;;0.20;0.20;;;;;;;19.01;100.00;99457.75;5085769;28;20679;-64
2023/08/27 04:35:13;;;;;;;0.20;0.20;;;;;;;19.02;100.00;99461.31;5090883;28;20475;-64
2023/08/27 04:37:38;;;;;;;0.22;0.22;;;;;;;19.06;100.00;99468.22;5080430;28;20028;-63
2023/08/27 04:40:04;;;;;;;0.20;0.20;;;;;;;19.01;100.00;99482.00;5081668;28;20028;-64
2023/08/27 04:42:29;;;;;;;0.30;0.30;;;;;;;18.93;100.00;99479.03;5087748;28;20016;-64
2023/08/27 04:44:55;;;;;;;0.20;0.20;;;;;;;18.93;100.00;99483.59;5073932;28;20028;-62
2023/08/27 04:47:20;;;;;;;0.30;0.30;;;;;;;18.89;100.00;99482.09;5089821;28;20024;-62
2023/08/27 04:49:45;;;;;;;0.20;0.20;;;;;;;18.85;100.00;99475.19;5084823;28;20100;-62
2023/08/27 04:52:11;;;;;;;0.20;0.20;;;;;;;18.79;100.00;99475.66;5088913;28;20039;-62
2023/08/27 04:54:36;;;;;;;0.20;0.20;;;;;;;18.76;100.00;99475.88;5088101;28;20564;-62
2023/08/27 04:57:02;;;;;;;0.30;0.30;;;;;;;18.79;100.00;99479.22;5089481;28;20024;-61
2023/08/27 04:59:28;;;;;;;0.20;0.20;;;;;;;18.74;100.00;99473.31;5087908;28;20217;-62
2023/08/27 05:01:55;;;;;;;0.20;0.20;;;;;;;18.72;100.00;99472.56;5086197;28;20032;-62
2023/08/27 05:04:20;;;;;;;0.20;0.20;;;;;;;18.76;100.00;99481.28;5072269;28;20094;-61
2023/08/27 05:06:46;;;;;;;0.20;0.20;;;;;;;18.73;100.00;99482.34;5087138;28;20498;-62
2023/08/27 05:09:11;;;;;;;0.20;0.20;;;;;;;18.72;100.00;99501.31;5073861;28;20028;-62
2023/08/27 05:11:36;;;;;;;0.20;0.20;;;;;;;18.75;100.00;99501.97;5090012;28;20031;-61
2023/08/27 05:14:02;;;;;;;0.20;0.20;;;;;;;18.75;100.00;99485.78;5078418;28;20536;-61
2023/08/27 05:16:29;;;;;;;0.20;0.20;;;;;;;18.83;100.00;99474.47;5069831;28;20034;-61
2023/08/27 05:18:54;;;;;;;0.20;0.20;;;;;;;18.82;100.00;99476.28;5052890;28;20114;-61
2023/08/27 05:21:19;;;;;;;0.20;0.20;;;;;;;18.84;100.00;99470.78;5049781;28;20550;-62
2023/08/27 05:23:45;;;;;;;0.25;0.25;;;;;;;18.81;100.00;99461.13;5046948;28;20115;-62
2023/08/27 05:26:10;;;;;;;0.20;0.20;;;;;;;18.86;100.00;99448.13;5049858;28;20021;-61
2023/08/27 05:28:36;;;;;;;0.20;0.20;;;;;;;18.90;100.00;99463.09;5049636;28;20414;-61
2023/08/27 05:31:03;;;;;;;0.20;0.20;;;;;;;18.91;100.00;99459.41;5051970;28;20033;-63
2023/08/27 05:33:29;;;;;;;0.30;0.30;;;;;;;18.95;100.00;99454.66;5049728;28;20024;-63
2023/08/27 05:35:54;;;;;;;0.20;0.20;;;;;;;19.02;100.00;99456.78;5058027;28;20097;-63
2023/08/27 05:38:20;;;;;;;0.20;0.20;;;;;;;19.07;100.00;99465.41;5049516;28;20201;-63
2023/08/27 05:40:46;;;;;;;0.22;0.22;;;;;;;19.12;100.00;99462.34;5049275;28;20036;-63
2023/08/27 05:43:11;;;;;;;0.30;0.30;;;;;;;19.17;100.00;99457.47;5065332;28;20505;-64
2023/08/27 05:45:36;;;;;;;0.20;0.20;;;;;;;19.22;100.00;99457.97;5069319;28;20035;-63
2023/08/27 05:48:02;;;;;;;0.20;0.20;;;;;;;19.24;100.00;99461.41;5064161;28;20686;-63
2023/08/27 05:50:28;;;;;;;0.20;0.20;;;;;;;19.31;100.00;99462.66;5049156;28;20025;-63
2023/08/27 05:52:53;;;;;;;0.20;0.20;;;;;;;19.35;100.00;99469.56;5048969;28;20070;-63
2023/08/27 05:55:18;;;;;;;0.20;0.20;;;;;;;19.38;100.00;99472.88;5040630;28;20036;-64
2023/08/27 05:57:44;;;;;;;0.20;0.20;;;;;;;19.41;100.00;99479.88;5064562;28;20106;-63
2023/08/27 06:00:10;;;;;;;0.20;0.20;;;;;;;19.42;100.00;99466.25;5069113;28;20032;-63
2023/08/27 06:02:35;;;;;;;0.20;0.20;;;;;;;19.43;100.00;99462.59;5053390;28;20041;-64
2023/08/27 06:05:01;;;;;;;0.22;0.22;;;;;;;19.47;100.00;99469.47;5067606;28;20043;-63
2023/08/27 06:07:26;;;;;;;0.20;0.20;;;;;;;19.48;100.00;99470.34;5067701;28;20122;-64
2023/08/27 06:09:52;;;;;;;0.20;0.20;;;;;;;19.51;100.00;99464.69;5046331;28;20089;-64
2023/08/27 06:12:17;;;;;;;0.20;0.20;;;;;;;19.57;100.00;99467.78;5064192;28;20028;-64
2023/08/27 06:14:42;;;;;;;0.20;0.20;;;;;;;19.61;100.00;99471.09;5067330;28;20625;-64
2023/08/27 06:17:08;;;;;;;0.20;0.20;;;;;;;19.60;100.00;99467.53;5067558;28;20029;-64
2023/08/27 06:19:33;;;;;;;0.20;0.20;;;;;;;19.64;100.00;99465.44;5068525;28;20743;-64
2023/08/27 06:21:59;;;;;;;0.20;0.20;;;;;;;19.63;100.00;99458.34;5068888;28;20027;-63
2023/08/27 06:24:24;;;;;;;0.20;0.20;;;;;;;19.70;100.00;99470.41;5071195;28;20032;-64
2023/08/27 06:26:49;;;;;;;0.20;0.20;;;;;;;19.73;100.00;99469.28;5068660;28;20399;-63
2023/08/27 06:29:15;;;;;;;0.20;0.20;;;;;;;19.70;100.00;99470.41;5068870;28;20459;-64
2023/08/27 06:31:40;;;;;;;0.20;0.20;;;;;;;19.71;100.00;99477.50;5068880;28;20024;-63
2023/08/27 06:34:06;;;;;;;0.30;0.30;;;;;;;19.72;100.00;99484.59;5076071;28;20085;-64
2023/08/27 06:36:31;;;;;;;0.20;0.20;;;;;;;19.72;100.00;99484.59;5085083;28;20024;-64
2023/08/27 06:38:57;;;;;;;0.20;0.20;;;;;;;19.74;100.00;99484.47;5074498;28;20472;-64
2023/08/27 06:41:22;;;;;;;0.13;0.13;;;;;;;19.76;100.00;99486.09;5068925;28;20021;-63
2023/08/27 06:43:48;;;;;;;0.20;0.20;;;;;;;19.78;100.00;99499.47;5082538;28;20020;-64
2023/08/27 06:46:14;;;;;;;0.20;0.20;;;;;;;19.80;100.00;99498.38;5078695;28;20036;-64
2023/08/27 06:48:39;;;;;;;0.20;0.20;;;;;;;19.84;100.00;99478.25;5085696;28;20110;-63
2023/08/27 06:51:05;;;;;;;0.20;0.20;;;;;;;19.90;100.00;99466.97;5087886;28;20077;-63
2023/08/27 06:53:30;;;;;;;0.20;0.20;;;;;;;20.01;100.00;99453.47;5084298;28;20053;-63
2023/08/27 06:55:55;;;;;;;0.20;0.20;;;;;;;20.15;100.00;99450.56;5086668;28;20082;-64
2023/08/27 06:58:21;;;;;;;0.20;0.20;;;;;;;20.23;100.00;99448.09;5087489;28;20107;-64
2023/08/27 07:00:46;;;;;;;0.20;0.20;;;;;;;20.37;100.00;99439.75;5083877;28;20035;-64
2023/08/27 07:03:12;;;;;;;0.20;0.20;;;;;;;20.46;100.00;99438.97;5073714;28;20036;-64
2023/08/27 07:05:38;;;;;;;0.20;0.20;;;;;;;20.53;100.00;99445.59;5069494;28;20021;-64
2023/08/27 07:08:04;;;;;;;0.20;0.20;;;;;;;20.67;100.00;99434.50;5073141;28;20091;-64
2023/08/27 07:10:29;;;;;;;0.20;0.20;;;;;;;20.79;100.00;99441.59;5070797;28;20508;-63
2023/08/27 07:12:55;;;;;;;0.20;0.20;;;;;;;20.88;100.00;99435.44;5058966;28;20032;-64
2023/08/27 07:15:20;;;;;;;0.20;0.20;;;;;;;21.03;100.00;99448.66;5086526;28;20460;-64
2023/08/27 07:17:46;;;;;;;0.20;0.20;;;;;;;21.09;100.00;99461.69;5087430;28;20038;-64
2023/08/27 07:20:12;;;;;;;0.20;0.20;;;;;;;21.27;100.00;99484.50;5070327;28;20035;-64
2023/08/27 07:22:37;;;;;;;0.20;0.20;;;;;;;21.39;100.00;99488.84;5067976;28;20028;-64
2023/08/27 07:25:05;;;;;;;0.20;0.20;;;;;;;21.45;100.00;99488.34;5068046;28;20448;-63
2023/08/27 07:27:31;;;;;;;0.20;0.20;;;;;;;21.44;100.00;99498.28;5068328;28;20055;-64
2023/08/27 07:29:56;;;;;;;0.20;0.20;;;;;;;21.47;100.00;99499.84;5087577;28;20065;-64
2023/08/27 07:32:22;;;;;;;0.20;0.20;;;;;;;21.51;100.00;99512.16;5089395;28;20020;-63
2023/08/27 07:34:47;;;;;;;0.20;0.20;;;;;;;21.59;100.00;99507.81;5088702;28;20578;-64
2023/08/27 07:37:12;;;;;;;0.17;0.17;;;;;;;21.61;100.00;99516.66;5088258;28;20111;-64
2023/08/27 07:39:38;;;;;;;0.20;0.20;;;;;;;21.58;100.00;99525.03;5091651;28;20030;-64
2023/08/27 07:42:04;;;;;;;0.10;0.10;;;;;;;21.57;100.00;99519.75;5091786;28;20658;-64
2023/08/27 07:44:29;;;;;;;0.20;0.20;;;;;;;21.58;100.00;99516.06;5074131;28;20077;-64
2023/08/27 07:46:54;;;;;;;0.20;0.20;;;;;;;21.59;100.00;99521.34;5071534;28;20032;-63
2023/08/27 07:49:20;;;;;;;0.10;0.10;;;;;;;21.67;100.00;99504.44;5070729;28;20070;-64
2023/08/27 07:51:46;;;;;;;0.10;0.10;;;;;;;21.69;99.72;99518.69;5070892;28;20067;-64
2023/08/27 07:54:11;;;;;;;0.20;0.20;;;;;;;21.63;99.18;99533.63;5073129;28;20040;-64
2023/08/27 07:56:36;;;;;;;0.20;0.20;;;;;;;21.62;98.31;99528.34;5081597;28;20031;-64
2023/08/27 07:59:02;;;;;;;0.20;0.20;;;;;;;21.57;98.10;99533.28;5090445;28;20059;-64
2023/08/27 08:01:27;;;;;;;0.20;0.20;;;;;;;21.51;98.39;99536.50;5086101;28;20364;-64
2023/08/27 08:03:53;;;;;;;0.20;0.20;;;;;;;21.50;99.01;99529.41;5091116;28;20113;-64
2023/08/27 08:06:18;;;;;;;0.20;0.20;;;;;;;21.63;99.74;99527.38;5090420;28;20107;-64
2023/08/27 08:08:44;;;;;;;0.20;0.20;;;;;;;21.67;98.60;99536.91;5073411;28;20510;-64
2023/08/27 08:11:09;;;;;;;0.15;0.15;;;;;;;21.71;97.77;99530.25;5071064;28;20024;-64
2023/08/27 08:13:36;;;;;;;0.20;0.20;;;;;;;21.73;95.74;99533.72;5072026;28;20071;-64
2023/08/27 08:16:02;;;;;;;0.20;0.20;;;;;;;21.71;94.90;99532.97;5071251;28;20495;-64
2023/08/27 08:18:28;;;;;;;0.10;0.10;;;;;;;21.75;95.08;99535.28;5087907;28;20028;-63
2023/08/27 08:20:55;;;;;;;0.20;0.20;;;;;;;21.87;94.84;99538.81;5091226;28;20055;-63
2023/08/27 08:23:21;;;;;;;0.20;0.20;;;;;;;21.96;94.83;99549.69;5077026;28;20063;-63
2023/08/27 08:25:49;;;;;;;0.10;0.10;;;;;;;21.89;93.36;99534.97;5071213;28;20064;-63
2023/08/27 08:28:15;;;;;;;0.10;0.10;;;;;;;22.00;92.97;99553.00;5070811;28;20509;-64
2023/08/27 08:30:46;;;;;;;0.10;0.10;;;;;;;22.01;92.31;99535.75;5073555;28;20111;-64
2023/08/27 08:33:11;;;;;;;0.10;0.10;;;;;;;22.11;92.24;99526.69;5072512;28;20028;-64
2023/08/27 08:35:37;;;;;;;0.10;0.10;;;;;;;22.05;90.63;99548.06;5070765;28;20035;-64
2023/08/27 08:38:03;;;;;;;0.20;0.20;;;;;;;22.18;91.30;99540.56;5083473;28;20030;-64
2023/08/27 08:40:29;;;;;;;0.20;0.20;;;;;;;22.28;91.46;99555.03;5085536;28;20069;-63
2023/08/27 08:42:59;;;;;;;0.20;0.20;;;;;;;22.18;89.55;99564.94;5083986;28;20056;-64
2023/08/27 08:45:37;;;;;;;0.10;0.10;;;;;;;22.26;90.88;99556.19;5072604;28;20027;-63
2023/08/27 08:48:06;;;;;;;0.10;0.10;;;;;;;22.30;90.29;99558.47;5066977;28;20444;-64
2023/08/27 08:50:35;;;;;;;0.20;0.20;;;;;;;22.39;88.94;99546.81;5084043;28;20028;-64
2023/08/27 08:53:13;;;;;;;0.10;0.10;;;;;;;22.59;87.24;99547.78;5087229;28;20503;-63
2023/08/27 08:55:45;;;;;;;0.17;0.17;;;;;;;23.33;85.18;99545.44;5079061;28;20111;-64
2023/08/27 08:58:12;;;;;;;0.10;0.10;;;;;;;24.05;81.96;99553.16;5071348;28;20039;-63
2023/08/27 09:00:38;;;;;;;0.10;0.10;;;;;;;25.26;79.18;99564.69;5071757;28;20746;-64
2023/08/27 09:03:04;;;;;;;0.10;0.10;;;;;;;25.40;71.27;99555.19;5084703;28;20025;-63
2023/08/27 09:05:34;;;;;;;0.15;0.15;;;;;;;25.13;71.93;99544.28;5069808;28;20036;-64
2023/08/27 09:08:00;;;;;;;0.10;0.10;;;;;;;25.04;72.99;99534.31;5069834;28;20031;-64
2023/08/27 09:10:27;;;;;;;0.10;0.10;;;;;;;25.34;70.09;99515.75;5077001;28;20031;-63
2023/08/27 09:12:57;;;;;;;0.10;0.10;;;;;;;25.77;70.38;99504.94;5079038;28;20040;-62
2023/08/27 09:15:23;;;;;;;0.10;0.10;;;;;;;26.14;67.99;99501.16;5069726;28;20047;-63
2023/08/27 09:17:49;;;;;;;0.10;0.10;;;;;;;26.29;66.77;99491.38;5069724;28;20449;-63
2023/08/27 09:20:15;;;;;;;0.10;0.10;;;;;;;26.27;66.83;99488.81;5069139;28;20059;-63
2023/08/27 09:22:43;;;;;;;0.10;0.10;;;;;;;25.97;68.50;99491.97;5071521;28;20073;-62
2023/08/27 09:25:10;;;;;;;0.10;0.10;;;;;;;25.38;69.47;99498.16;5069621;28;20384;-62
2023/08/27 09:27:35;;;;;;;0.10;0.10;;;;;;;25.01;70.88;99485.66;5071607;28;20055;-62
2023/08/27 09:30:03;;;;;;;0.10;0.10;;;;;;;24.82;72.54;99502.94;5086757;28;20057;-63
2023/08/27 09:32:29;;;;;;;0.10;0.10;;;;;;;24.48;73.00;99497.22;5089289;28;20112;-62
2023/08/27 09:35:04;;;;;;;0.10;0.10;;;;;;;24.44;74.64;99511.25;5086196;28;20074;-63
2023/08/27 09:37:43;;;;;;;0.10;0.10;;;;;;;24.61;75.72;99521.34;5080530;28;20479;-62
2023/08/27 09:40:10;;;;;;;0.10;0.10;;;;;;;24.58;75.65;99518.91;5079604;28;20404;-62
2023/08/27 09:42:37;;;;;;;0.10;0.10;;;;;;;24.56;75.81;99519.06;5069716;28;20020;-62
2023/08/27 09:45:03;;;;;;;0.10;0.10;;;;;;;24.49;75.62;99496.22;5074727;28;20077;-63
2023/08/27 09:47:34;;;;;;;0.10;0.10;;;;;;;24.82;75.82;99515.69;5077541;28;20032;-63
2023/08/27 09:50:02;;;;;;;0.10;0.10;;;;;;;24.85;73.88;99515.38;5069096;28;20054;-63
2023/08/27 09:52:28;;;;;;;0.10;0.10;;;;;;;24.96;73.25;99507.84;5073055;28;20024;-64
2023/08/27 09:54:53;;;;;;;0.10;0.10;;;;;;;25.05;73.01;99503.38;5088529;28;20030;-63
2023/08/27 09:57:20;;;;;;;0.10;0.10;;;;;;;24.94;72.88;99490.84;5089301;28;20023;-63
2023/08/27 09:59:46;;;;;;;0.10;0.10;;;;;;;24.86;71.63;99496.16;5071029;28;20028;-61
2023/08/27 10:02:13;;;;;;;0.10;0.10;;;;;;;24.86;72.54;99511.66;5086164;28;20032;-62
2023/08/27 10:04:56;;;;;;;0.10;0.10;;;;;;;24.94;73.73;99512.63;5071499;28;20029;-62
2023/08/27 10:07:22;;;;;;;0.10;0.10;;;;;;;25.11;74.45;99513.63;5068984;28;20040;-62
2023/08/27 10:09:54;;;;;;;0.10;0.10;;;;;;;25.20;72.89;99516.31;5068994;28;20023;-63
2023/08/27 10:12:21;;;;;;;0.10;0.10;;;;;;;25.17;73.85;99505.69;5071638;28;20472;-63
2023/08/27 10:14:47;;;;;;;0.10;0.10;;;;;;;25.36;73.59;99497.44;5068587;28;20059;-63
2023/08/27 10:17:15;;;;;;;0.10;0.10;;;;;;;25.39;72.32;99488.94;5068900;28;20418;-63
2023/08/27 10:19:40;;;;;;;0.10;0.10;;;;;;;25.46;72.35;99500.06;5070174;28;20028;-62
2023/08/27 10:22:06;;;;;;;0.10;0.10;;;;;;;25.26;71.31;99501.19;5068418;28;20027;-63
2023/08/27 10:24:36;;;;;;;0.10;0.10;;;;;;;25.26;72.27;99498.47;5071281;28;20020;-63
2023/08/27 10:27:06;;;;;;;0.10;0.10;;;;;;;25.32;72.53;99509.59;5068715;28;20036;-63
2023/08/27 10:29:33;;;;;;;0.00;0.00;;;;;;;25.51;73.00;99504.06;5070076;28;20028;-63
2023/08/27 10:31:59;;;;;;;0.10;0.10;;;;;;;25.63;71.87;99513.66;5082114;28;20032;-63
2023/08/27 10:34:28;;;;;;;0.10;0.10;;;;;;;25.92;69.07;99506.09;5088328;28;20498;-63
2023/08/27 10:36:56;;;;;;;0.10;0.10;;;;;;;26.08;68.14;99508.09;5085896;28;20030;-63
2023/08/27 10:39:26;;;;;;;0.10;0.10;;;;;;;26.16;69.23;99512.75;5088966;28;20024;-63
2023/08/27 10:41:52;;;;;;;0.10;0.10;;;;;;;26.03;68.96;99521.34;5088629;28;20055;-63
2023/08/27 10:44:21;;;;;;;0.10;0.10;;;;;;;25.96;69.65;99523.81;5086786;28;20048;-64
2023/08/27 10:47:17;;;;;;;0.10;0.10;;;;;;;25.92;71.74;99514.28;5088385;28;20032;-64
2023/08/27 10:49:45;;;;;;;0.10;0.10;;;;;;;25.92;70.98;99517.00;5088747;28;20027;-63
2023/08/27 10:52:18;;;;;;;0.10;0.10;;;;;;;25.84;70.92;99516.06;5085205;28;20472;-64
2023/08/27 10:54:48;;;;;;;0.10;0.10;;;;;;;25.66;67.31;99502.47;5073326;28;20015;-63
2023/08/27 10:57:17;;;;;;;0.10;0.10;;;;;;;25.49;68.73;99494.31;5081446;28;20077;-64
2023/08/27 10:59:42;;;;;;;0.10;0.10;;;;;;;25.42;68.23;99494.06;5073582;28;20025;-63
2023/08/27 11:02:08;;;;;;;0.10;0.10;;;;;;;25.51;69.29;99498.59;5075214;28;20104;-64
2023/08/27 11:04:42;;;;;;;0.10;0.10;;;;;;;25.67;68.32;99493.28;5088280;28;20024;-63
2023/08/27 11:07:18;;;;;;;0.10;0.10;;;;;;;25.67;68.20;99487.84;5075948;28;20020;-64
2023/08/27 11:09:53;;;;;;;0.10;0.10;;;;;;;25.79;65.63;99489.31;5074087;28;20024;-63
2023/08/27 11:12:26;;;;;;;0.10;0.10;;;;;;;25.82;65.84;99491.72;5088527;28;20597;-63
2023/08/27 11:14:53;;;;;;;0.10;0.10;;;;;;;25.63;66.35;99494.59;5071173;28;20067;-63
2023/08/27 11:17:28;;;;;;;0.10;0.10;;;;;;;25.48;70.14;99498.91;5072295;28;20032;-63
2023/08/27 11:19:57;;;;;;;0.10;0.10;;;;;;;25.27;68.85;99506.50;5072114;28;20082;-64
2023/08/27 11:22:24;;;;;;;0.10;0.10;;;;;;;25.08;70.21;99501.19;5074433;28;20028;-63
2023/08/27 11:24:52;;;;;;;0.10;0.10;;;;;;;25.02;70.69;99499.09;5072037;28;20107;-63